createdAt,value
2023-02-08T00:00:57.623Z,102869.00
2023-02-08T00:01:37.705Z,102865.44
2023-02-08T00:02:18.681Z,102869.09
2023-02-08T00:03:06.656Z,102875.25
2023-02-08T00:04:01.691Z,102863.72
2023-02-08T00:04:55.616Z,102875.31
2023-02-08T00:05:49.646Z,102875.41
2023-02-08T00:06:43.638Z,102876.31
2023-02-08T00:07:37.680Z,102873.75
2023-02-08T00:08:24.656Z,102872.84
2023-02-08T00:09:04.718Z,102867.56
2023-02-08T00:09:44.592Z,102862.19
2023-02-08T00:10:25.688Z,102848.00
2023-02-08T00:11:05.603Z,102875.47
2023-02-08T00:11:45.670Z,102872.81
2023-02-08T00:12:25.635Z,102854.16
2023-02-08T00:13:05.672Z,102878.09
2023-02-08T00:13:47.634Z,102875.44
2023-02-08T00:14:28.682Z,102875.44
2023-02-08T00:15:09.637Z,102866.59
2023-02-08T00:15:51.659Z,102870.09
2023-02-08T00:16:31.605Z,102857.72
2023-02-08T00:17:11.651Z,102879.81
2023-02-08T00:17:51.602Z,102877.09
2023-02-08T00:18:31.681Z,102864.75
2023-02-08T00:19:11.638Z,102881.56
2023-02-08T00:19:51.665Z,102876.19
2023-02-08T00:20:31.569Z,102865.59
2023-02-08T00:21:21.667Z,102874.44
2023-02-08T00:22:01.589Z,102876.09
2023-02-08T00:22:41.691Z,102880.38
2023-02-08T00:23:22.602Z,102880.38
2023-02-08T00:24:02.678Z,102874.13
2023-02-08T00:24:42.671Z,102881.19
2023-02-08T00:25:22.820Z,102863.47
2023-02-08T00:26:02.624Z,102877.53
2023-02-08T00:26:43.636Z,102874.03
2023-02-08T00:27:24.912Z,102860.78
2023-02-08T00:28:04.874Z,102875.84
2023-02-08T00:28:45.595Z,102881.19
2023-02-08T00:29:26.656Z,102887.47
2023-02-08T00:30:06.607Z,102882.28
2023-02-08T00:30:47.677Z,102880.59
2023-02-08T00:31:28.644Z,102882.31
2023-02-08T00:32:08.649Z,102876.09
2023-02-08T00:32:48.608Z,102880.53
2023-02-08T00:33:28.665Z,102876.19
2023-02-08T00:34:08.556Z,102889.47
2023-02-08T00:34:48.644Z,102877.03
2023-02-08T00:35:28.584Z,102880.59
2023-02-08T00:36:11.653Z,102873.50
2023-02-08T00:36:51.585Z,102865.63
2023-02-08T00:37:31.681Z,102881.56
2023-02-08T00:38:11.594Z,102876.22
2023-02-08T00:38:51.670Z,102872.69
2023-02-08T00:39:32.575Z,102844.41
2023-02-08T00:40:13.762Z,102877.13
2023-02-08T00:41:00.582Z,102877.19
2023-02-08T00:41:34.639Z,102869.31
2023-02-08T00:42:21.593Z,102875.47
2023-02-08T00:42:55.598Z,102870.16
2023-02-08T00:43:42.555Z,102881.63
2023-02-08T00:44:16.639Z,102874.56
2023-02-08T00:45:03.562Z,102860.34
2023-02-08T00:45:39.799Z,102872.81
2023-02-08T00:46:19.650Z,102867.41
2023-02-08T00:46:59.652Z,102878.00
2023-02-08T00:47:40.578Z,102878.94
2023-02-08T00:48:20.648Z,102878.03
2023-02-08T00:49:00.837Z,102870.09
2023-02-08T00:49:40.622Z,102877.91
2023-02-08T00:50:20.566Z,102864.63
2023-02-08T00:51:05.693Z,102876.09
2023-02-08T00:51:46.588Z,102879.56
2023-02-08T00:52:26.617Z,102877.91
2023-02-08T00:53:06.562Z,102872.66
2023-02-08T00:53:50.636Z,102872.56
2023-02-08T00:54:30.535Z,102869.09
2023-02-08T00:55:12.599Z,102879.69
2023-02-08T00:56:00.534Z,102880.53
2023-02-08T00:56:40.582Z,102877.84
2023-02-08T00:57:21.615Z,102880.56
2023-02-08T00:58:01.630Z,102869.97
2023-02-08T00:58:42.572Z,102861.16
2023-02-08T00:59:22.677Z,102865.56
2023-02-08T01:00:03.552Z,102888.59
2023-02-08T01:00:43.643Z,102869.97
2023-02-08T01:01:23.554Z,102862.00
2023-02-08T01:02:03.708Z,102873.44
2023-02-08T01:02:45.597Z,102888.44
2023-02-08T01:03:27.623Z,102868.88
2023-02-08T01:04:08.523Z,102876.06
2023-02-08T01:04:48.663Z,102866.41
2023-02-08T01:05:28.540Z,102883.25
2023-02-08T01:06:12.590Z,102879.69
2023-02-08T01:06:52.562Z,102866.41
2023-02-08T01:07:32.614Z,102877.91
2023-02-08T01:08:13.578Z,102876.97
2023-02-08T01:08:53.663Z,102854.78
2023-02-08T01:09:33.526Z,102878.66
2023-02-08T01:10:15.717Z,102871.56
2023-02-08T01:10:55.532Z,102870.72
2023-02-08T01:11:35.732Z,102876.91
2023-02-08T01:12:16.527Z,102871.66
2023-02-08T01:12:56.589Z,102869.81
2023-02-08T01:13:37.539Z,102869.72
2023-02-08T01:14:17.603Z,102876.84
2023-02-08T01:14:57.537Z,102877.81
2023-02-08T01:15:37.600Z,102874.22
2023-02-08T01:16:24.593Z,102871.47
2023-02-08T01:17:04.601Z,102884.81
2023-02-08T01:17:44.529Z,102860.84
2023-02-08T01:18:24.601Z,102868.91
2023-02-08T01:19:06.572Z,102883.00
2023-02-08T01:19:46.602Z,102874.97
2023-02-08T01:20:27.552Z,102875.91
2023-02-08T01:21:20.648Z,102875.91
2023-02-08T01:22:01.538Z,102874.03
2023-02-08T01:22:41.567Z,102872.28
2023-02-08T01:23:21.531Z,102877.53
2023-02-08T01:24:02.667Z,102858.13
2023-02-08T01:24:43.576Z,102861.66
2023-02-08T01:25:24.674Z,102871.47
2023-02-08T01:26:04.584Z,102855.66
2023-02-08T01:26:45.627Z,102874.22
2023-02-08T01:27:25.516Z,102872.47
2023-02-08T01:28:05.638Z,102876.94
2023-02-08T01:28:46.483Z,102859.31
2023-02-08T01:29:26.571Z,102864.56
2023-02-08T01:30:06.609Z,102869.00
2023-02-08T01:30:46.580Z,102860.16
2023-02-08T01:31:35.576Z,102873.44
2023-02-08T01:32:15.734Z,102876.84
2023-02-08T01:32:56.525Z,102880.38
2023-02-08T01:33:51.512Z,102875.06
2023-02-08T01:34:45.557Z,102872.47
2023-02-08T01:35:25.510Z,102846.03
2023-02-08T01:36:05.626Z,102855.72
2023-02-08T01:36:46.527Z,102863.84
2023-02-08T01:37:26.572Z,102876.19
2023-02-08T01:38:06.504Z,102858.50
2023-02-08T01:38:46.654Z,102871.75
2023-02-08T01:39:26.532Z,102874.44
2023-02-08T01:40:06.591Z,102868.22
2023-02-08T01:40:46.540Z,102874.44
2023-02-08T01:41:36.597Z,102878.03
2023-02-08T01:42:25.490Z,102880.69
2023-02-08T01:43:05.607Z,102874.44
2023-02-08T01:44:08.533Z,102872.66
2023-02-08T01:45:23.351Z,102881.47
2023-02-08T01:46:04.612Z,102870.75
2023-02-08T01:46:55.591Z,102868.06
2023-02-08T01:47:36.497Z,102853.03
2023-02-08T01:48:45.589Z,102874.31
2023-02-08T01:49:34.508Z,102876.06
2023-02-08T01:50:15.670Z,102869.00
2023-02-08T01:51:08.503Z,102862.91
2023-02-08T01:52:00.665Z,102865.59
2023-02-08T01:52:41.483Z,102862.94
2023-02-08T01:53:21.554Z,102860.19
2023-02-08T01:54:03.505Z,102867.31
2023-02-08T01:54:49.551Z,102872.75
2023-02-08T01:55:38.457Z,102850.66
2023-02-08T01:56:36.504Z,102864.75
2023-02-08T01:57:30.538Z,102870.00
2023-02-08T01:58:25.495Z,102860.34
2023-02-08T01:59:27.512Z,102839.06
2023-02-08T02:00:30.499Z,102860.13
2023-02-08T02:01:25.500Z,102858.31
2023-02-08T02:02:06.538Z,102860.16
2023-02-08T02:02:49.029Z,102858.38
2023-02-08T02:03:30.517Z,102843.44
2023-02-08T02:04:12.685Z,102866.53
2023-02-08T02:04:54.498Z,102855.81
2023-02-08T02:05:51.533Z,102827.59
2023-02-08T02:06:39.446Z,102862.06
2023-02-08T02:07:27.480Z,102840.81
2023-02-08T02:08:21.497Z,102867.44
2023-02-08T02:09:19.521Z,102864.63
2023-02-08T02:10:27.468Z,102872.59
2023-02-08T02:11:21.485Z,102848.75
2023-02-08T02:12:16.483Z,102859.41
2023-02-08T02:12:57.493Z,102862.88
2023-02-08T02:13:38.551Z,102868.34
2023-02-08T02:14:19.452Z,102850.63
2023-02-08T02:14:59.568Z,102838.19
2023-02-08T02:15:40.465Z,102858.38
2023-02-08T02:16:20.770Z,102854.84
2023-02-08T02:17:00.500Z,102856.66
2023-02-08T02:17:41.599Z,102869.97
2023-02-08T02:18:30.489Z,102868.09
2023-02-08T02:19:12.537Z,102851.28
2023-02-08T02:20:25.446Z,102867.16
2023-02-08T02:21:36.622Z,102863.84
2023-02-08T02:22:37.550Z,102855.91
2023-02-08T02:23:59.718Z,102857.59
2023-02-08T02:25:32.494Z,102842.53
2023-02-08T02:26:32.467Z,102870.84
2023-02-08T02:27:43.491Z,102864.66
2023-02-08T02:29:20.498Z,102872.56
2023-02-08T02:30:35.471Z,102876.28
2023-02-08T02:32:13.460Z,102861.97
2023-02-08T02:33:44.438Z,102869.41
2023-02-08T02:35:02.526Z,102864.28
2023-02-08T02:36:42.450Z,102872.28
2023-02-08T02:38:10.459Z,102869.63
2023-02-08T02:39:24.438Z,102862.41
2023-02-08T02:40:39.751Z,102860.59
2023-02-08T02:41:59.475Z,102872.03
2023-02-08T02:43:53.478Z,102856.00
2023-02-08T02:45:10.481Z,102867.56
2023-02-08T02:46:32.458Z,102862.28
2023-02-08T02:47:19.486Z,102829.63
2023-02-08T02:48:21.447Z,102856.03
2023-02-08T02:49:08.526Z,102866.66
2023-02-08T02:50:17.467Z,102862.22
2023-02-08T02:51:11.559Z,102866.69
2023-02-08T02:52:17.468Z,102863.13
2023-02-08T02:53:14.508Z,102855.13
2023-02-08T02:54:13.432Z,102856.06
2023-02-08T02:54:58.532Z,102860.47
2023-02-08T02:55:43.412Z,102855.09
2023-02-08T02:56:28.501Z,102856.88
2023-02-08T02:57:12.412Z,102867.44
2023-02-08T02:57:54.452Z,102860.31
2023-02-08T02:58:28.555Z,102835.59
2023-02-08T02:59:17.480Z,102860.28
2023-02-08T02:59:51.460Z,102852.28
2023-02-08T03:00:40.758Z,102862.00
2023-02-08T03:01:14.553Z,102858.41
2023-02-08T03:02:03.426Z,102839.00
2023-02-08T03:02:37.760Z,102849.69
2023-02-08T03:03:32.461Z,102854.00
2023-02-08T03:04:38.458Z,102862.00
2023-02-08T03:05:19.447Z,102814.28
2023-02-08T03:06:05.503Z,102842.53
2023-02-08T03:07:07.409Z,102865.53
2023-02-08T03:08:27.549Z,102861.91
2023-02-08T03:09:33.453Z,102856.59
2023-02-08T03:10:28.615Z,102841.63
2023-02-08T03:11:26.408Z,102844.34
2023-02-08T03:12:45.528Z,102849.66
2023-02-08T03:13:44.366Z,102862.00
2023-02-08T03:14:56.451Z,102851.31
2023-02-08T03:16:08.414Z,102845.16
2023-02-08T03:17:30.412Z,102868.19
2023-02-08T03:19:04.411Z,102865.53
2023-02-08T03:20:21.434Z,102860.28
2023-02-08T03:21:43.402Z,102872.75
2023-02-08T03:23:21.412Z,102864.75
2023-02-08T03:24:32.411Z,102868.44
2023-02-08T03:25:59.420Z,102867.56
2023-02-08T03:27:14.392Z,102866.44
2023-02-08T03:28:21.491Z,102861.09
2023-02-08T03:30:01.497Z,102862.84
2023-02-08T03:31:00.458Z,102855.72
2023-02-08T03:31:52.627Z,102852.53
2023-02-08T03:33:03.408Z,102857.78
2023-02-08T03:33:50.495Z,102858.72
2023-02-08T03:34:51.397Z,102863.97
2023-02-08T03:36:19.409Z,102868.31
2023-02-08T03:37:23.378Z,102866.53
2023-02-08T03:38:23.356Z,102857.63
2023-02-08T03:39:22.385Z,102857.63
2023-02-08T03:40:25.422Z,102874.47
2023-02-08T03:41:24.411Z,102870.94
2023-02-08T03:42:25.395Z,102843.63
2023-02-08T03:43:45.392Z,102870.97
2023-02-08T03:44:48.400Z,102870.94
2023-02-08T03:45:47.424Z,102850.56
2023-02-08T03:46:46.418Z,102858.41
2023-02-08T03:47:43.390Z,102877.00
2023-02-08T03:48:39.449Z,102858.38
2023-02-08T03:49:42.367Z,102847.91
2023-02-08T03:50:37.547Z,102865.63
2023-02-08T03:51:32.395Z,102866.41
2023-02-08T03:52:18.379Z,102866.41
2023-02-08T03:52:59.475Z,102869.00
2023-02-08T03:53:44.415Z,102842.53
2023-02-08T03:54:33.431Z,102870.88
2023-02-08T03:55:24.375Z,102876.16
2023-02-08T03:56:08.489Z,102872.53
2023-02-08T03:56:58.363Z,102855.81
2023-02-08T03:58:10.399Z,102869.97
2023-02-08T03:59:06.423Z,102870.03
2023-02-08T04:00:01.402Z,102870.09
2023-02-08T04:00:37.506Z,102855.00
2023-02-08T04:01:37.398Z,102873.63
2023-02-08T04:02:14.475Z,102847.94
2023-02-08T04:03:14.379Z,102877.09
2023-02-08T04:03:50.093Z,102883.38
2023-02-08T04:04:42.551Z,102878.00
2023-02-08T04:05:16.446Z,102850.63
2023-02-08T04:06:03.418Z,102852.38
2023-02-08T04:06:37.426Z,102865.63
2023-02-08T04:07:26.374Z,102861.22
2023-02-08T04:08:00.405Z,102883.31
2023-02-08T04:08:40.416Z,102877.91
2023-02-08T04:09:20.416Z,102862.91
2023-02-08T04:10:02.338Z,102881.44
2023-02-08T04:10:42.697Z,102865.50
2023-02-08T04:11:23.344Z,102876.13
2023-02-08T04:12:03.420Z,102872.59
2023-02-08T04:12:43.384Z,102883.19
2023-02-08T04:13:23.420Z,102871.75
2023-02-08T04:14:03.349Z,102879.72
2023-02-08T04:14:43.555Z,102871.63
2023-02-08T04:15:24.339Z,102874.31
2023-02-08T04:16:04.667Z,102869.00
2023-02-08T04:16:44.328Z,102885.03
2023-02-08T04:17:24.428Z,102870.84
2023-02-08T04:18:04.336Z,102885.84
2023-02-08T04:18:44.411Z,102877.84
2023-02-08T04:19:25.367Z,102877.00
2023-02-08T04:20:05.414Z,102884.06
2023-02-08T04:20:45.393Z,102881.44
2023-02-08T04:21:25.392Z,102888.44
2023-02-08T04:22:05.330Z,102863.78
2023-02-08T04:22:45.470Z,102881.44
2023-02-08T04:23:26.356Z,102876.16
2023-02-08T04:24:06.426Z,102888.50
2023-02-08T04:24:47.325Z,102876.09
2023-02-08T04:25:27.386Z,102895.66
2023-02-08T04:26:07.320Z,102885.06
2023-02-08T04:26:47.427Z,102880.69
2023-02-08T04:27:28.327Z,102883.38
2023-02-08T04:28:08.589Z,102886.91
2023-02-08T04:28:48.303Z,102886.06
2023-02-08T04:29:28.378Z,102879.94
2023-02-08T04:30:08.346Z,102889.63
2023-02-08T04:30:48.439Z,102874.59
2023-02-08T04:31:35.373Z,102880.84
2023-02-08T04:32:11.669Z,102879.94
2023-02-08T04:32:58.372Z,102888.75
2023-02-08T04:33:32.365Z,102889.63
2023-02-08T04:34:19.326Z,102876.34
2023-02-08T04:34:53.475Z,102877.25
2023-02-08T04:35:34.339Z,102880.78
2023-02-08T04:36:14.370Z,102886.81
2023-02-08T04:36:54.336Z,102888.53
2023-02-08T04:37:48.327Z,102876.94
2023-02-08T04:38:42.329Z,102866.50
2023-02-08T04:39:36.324Z,102885.03
2023-02-08T04:40:31.331Z,102890.41
2023-02-08T04:41:12.394Z,102887.75
2023-02-08T04:41:52.386Z,102878.91
2023-02-08T04:42:33.292Z,102877.19
2023-02-08T04:43:13.380Z,102884.34
2023-02-08T04:43:54.315Z,102876.31
2023-02-08T04:44:34.423Z,102883.41
2023-02-08T04:45:15.336Z,102892.22
2023-02-08T04:45:57.397Z,102883.50
2023-02-08T04:46:37.430Z,102886.13
2023-02-08T04:47:17.380Z,102883.47
2023-02-08T04:47:59.210Z,102893.19
2023-02-08T04:48:39.395Z,102881.66
2023-02-08T04:49:19.278Z,102880.72
2023-02-08T04:49:59.364Z,102899.31
2023-02-08T04:50:40.587Z,102887.78
2023-02-08T04:51:21.380Z,102900.09
2023-02-08T04:52:02.332Z,102877.94
2023-02-08T04:52:42.373Z,102881.41
2023-02-08T04:53:22.318Z,102895.56
2023-02-08T04:54:02.423Z,102899.94
2023-02-08T04:54:42.302Z,102892.09
2023-02-08T04:55:22.382Z,102900.03
2023-02-08T04:56:03.287Z,102882.31
2023-02-08T04:56:44.397Z,102904.56
2023-02-08T04:57:24.326Z,102893.97
2023-02-08T04:58:05.398Z,102905.47
2023-02-08T04:58:45.319Z,102897.47
2023-02-08T04:59:25.386Z,102892.09
2023-02-08T05:00:06.291Z,102896.38
2023-02-08T05:00:46.385Z,102899.09
2023-02-08T05:01:27.331Z,102871.66
2023-02-08T05:02:07.404Z,102906.13
2023-02-08T05:02:47.291Z,102899.94
2023-02-08T05:03:27.348Z,102898.22
2023-02-08T05:04:08.271Z,102903.56
2023-02-08T05:04:48.410Z,102886.78
2023-02-08T05:05:28.333Z,102889.47
2023-02-08T05:06:08.342Z,102888.59
2023-02-08T05:06:48.592Z,102890.31
2023-02-08T05:07:28.389Z,102902.81
2023-02-08T05:08:09.335Z,102894.94
2023-02-08T05:08:49.361Z,102878.16
2023-02-08T05:09:29.322Z,102891.41
2023-02-08T05:10:11.372Z,102881.78
2023-02-08T05:10:52.249Z,102882.78
2023-02-08T05:11:32.359Z,102897.84
2023-02-08T05:12:13.297Z,102898.69
2023-02-08T05:12:53.358Z,102892.72
2023-02-08T05:13:33.338Z,102867.19
2023-02-08T05:14:13.367Z,102904.31
2023-02-08T05:14:53.346Z,102871.50
2023-02-08T05:15:33.336Z,102896.25
2023-02-08T05:16:14.318Z,102883.03
2023-02-08T05:16:54.335Z,102888.31
2023-02-08T05:17:34.260Z,102903.38
2023-02-08T05:18:14.355Z,102884.81
2023-02-08T05:18:54.349Z,102898.00
2023-02-08T05:19:34.331Z,102880.31
2023-02-08T05:20:17.325Z,102910.44
2023-02-08T05:21:08.379Z,102896.16
2023-02-08T05:21:48.263Z,102896.97
2023-02-08T05:22:28.337Z,102882.81
2023-02-08T05:23:08.256Z,102896.91
2023-02-08T05:23:49.844Z,102898.69
2023-02-08T05:24:31.298Z,102901.44
2023-02-08T05:25:11.343Z,102902.31
2023-02-08T05:25:51.263Z,102880.31
2023-02-08T05:26:31.347Z,102891.00
2023-02-08T05:27:11.261Z,102884.91
2023-02-08T05:28:05.298Z,102909.75
2023-02-08T05:28:59.244Z,102901.88
2023-02-08T05:29:46.291Z,102881.59
2023-02-08T05:30:20.291Z,102908.94
2023-02-08T05:31:21.371Z,102889.53
2023-02-08T05:31:55.416Z,102900.16
2023-02-08T05:32:42.260Z,102871.88
2023-02-08T05:33:16.354Z,102880.66
2023-02-08T05:34:03.234Z,102906.44
2023-02-08T05:34:37.338Z,102892.28
2023-02-08T05:35:17.257Z,102887.00
2023-02-08T05:35:57.308Z,102895.81
2023-02-08T05:36:38.228Z,102885.22
2023-02-08T05:37:18.353Z,102894.91
2023-02-08T05:37:58.246Z,102914.44
2023-02-08T05:38:38.300Z,102910.91
2023-02-08T05:39:18.249Z,102892.34
2023-02-08T05:39:58.375Z,102907.41
2023-02-08T05:40:41.584Z,102903.81
2023-02-08T05:41:23.325Z,102885.25
2023-02-08T05:42:03.216Z,102897.63
2023-02-08T05:42:44.508Z,102887.00
2023-02-08T05:43:24.246Z,102895.03
2023-02-08T05:44:04.305Z,102895.00
2023-02-08T05:44:45.267Z,102903.84
2023-02-08T05:45:25.386Z,102891.44
2023-02-08T05:46:05.267Z,102898.50
2023-02-08T05:46:45.339Z,102910.00
2023-02-08T05:47:25.228Z,102894.13
2023-02-08T05:48:05.273Z,102889.69
2023-02-08T05:48:46.249Z,102902.03
2023-02-08T05:49:40.224Z,102904.72
2023-02-08T05:50:34.244Z,102902.09
2023-02-08T05:51:21.282Z,102901.09
2023-02-08T05:51:58.300Z,102904.69
2023-02-08T05:52:45.223Z,102906.47
2023-02-08T05:53:19.307Z,102889.69
2023-02-08T05:54:06.247Z,102889.69
2023-02-08T05:54:40.286Z,102883.59
2023-02-08T05:55:27.202Z,102877.38
2023-02-08T05:56:01.267Z,102900.44
2023-02-08T05:56:42.255Z,102879.28
2023-02-08T05:57:22.282Z,102902.28
2023-02-08T05:58:02.220Z,102903.25
2023-02-08T05:58:42.329Z,102919.13
2023-02-08T05:59:22.254Z,102903.25
2023-02-08T06:00:02.278Z,102873.28
2023-02-08T06:00:43.282Z,102917.53
2023-02-08T06:01:23.286Z,102904.25
2023-02-08T06:02:03.226Z,102914.06
2023-02-08T06:02:43.322Z,102913.22
2023-02-08T06:03:23.272Z,102906.16
2023-02-08T06:04:04.316Z,102895.53
2023-02-08T06:04:45.253Z,102898.22
2023-02-08T06:05:25.274Z,102918.59
2023-02-08T06:06:08.256Z,102917.72
2023-02-08T06:06:48.277Z,102912.41
2023-02-08T06:07:28.216Z,102900.88
2023-02-08T06:08:08.300Z,102904.44
2023-02-08T06:08:49.201Z,102900.00
2023-02-08T06:09:29.288Z,102907.13
2023-02-08T06:10:11.670Z,102922.16
2023-02-08T06:10:55.264Z,102916.84
2023-02-08T06:11:35.207Z,102887.69
2023-02-08T06:12:15.311Z,102906.31
2023-02-08T06:12:56.212Z,102910.72
2023-02-08T06:13:36.269Z,102915.13
2023-02-08T06:14:17.210Z,102915.13
2023-02-08T06:14:57.266Z,102933.75
2023-02-08T06:15:38.178Z,102931.97
2023-02-08T06:16:20.143Z,102927.56
2023-02-08T06:17:01.219Z,102924.00
2023-02-08T06:17:41.258Z,102917.81
2023-02-08T06:18:22.258Z,102935.56
2023-02-08T06:19:02.312Z,102914.31
2023-02-08T06:19:42.220Z,102913.44
2023-02-08T06:20:22.358Z,102923.16
2023-02-08T06:21:03.180Z,102898.38
2023-02-08T06:21:43.325Z,102924.94
2023-02-08T06:22:24.187Z,102918.72
2023-02-08T06:23:04.268Z,102927.53
2023-02-08T06:23:44.208Z,102920.53
2023-02-08T06:24:25.254Z,102916.09
2023-02-08T06:25:06.178Z,102941.84
2023-02-08T06:25:46.269Z,102927.69
2023-02-08T06:26:26.177Z,102929.44
2023-02-08T06:27:06.300Z,102924.13
2023-02-08T06:27:46.186Z,102931.19
2023-02-08T06:28:26.330Z,102915.25
2023-02-08T06:29:07.184Z,102931.19
2023-02-08T06:29:47.380Z,102929.41
2023-02-08T06:30:27.209Z,102934.75
2023-02-08T06:31:07.268Z,102921.47
2023-02-08T06:31:47.310Z,102930.34
2023-02-08T06:32:27.278Z,102917.97
2023-02-08T06:33:08.171Z,102937.59
2023-02-08T06:33:48.227Z,102922.59
2023-02-08T06:34:29.195Z,102941.25
2023-02-08T06:35:09.249Z,102919.97
2023-02-08T06:35:58.230Z,102934.09
2023-02-08T06:36:38.280Z,102942.03
2023-02-08T06:37:19.246Z,102933.16
2023-02-08T06:37:59.234Z,102912.69
2023-02-08T06:38:39.164Z,102942.88
2023-02-08T06:39:19.297Z,102929.44
2023-02-08T06:39:59.224Z,102922.44
2023-02-08T06:40:40.683Z,102933.09
2023-02-08T06:41:28.639Z,102938.44
2023-02-08T06:42:09.245Z,102922.53
2023-02-08T06:42:49.205Z,102927.88
2023-02-08T06:43:29.241Z,102926.00
2023-02-08T06:44:11.740Z,102934.84
2023-02-08T06:44:55.238Z,102920.69
2023-02-08T06:45:38.884Z,102918.03
2023-02-08T06:46:19.243Z,102924.25
2023-02-08T06:47:00.165Z,102928.69
2023-02-08T06:47:42.434Z,102925.16
2023-02-08T06:48:28.156Z,102928.75
2023-02-08T06:49:08.272Z,102915.47
2023-02-08T06:49:52.101Z,102935.00
2023-02-08T06:50:32.246Z,102942.13
2023-02-08T06:51:12.238Z,102935.06
2023-02-08T06:51:52.220Z,102927.88
2023-02-08T06:52:32.200Z,102947.44
2023-02-08T06:53:12.317Z,102926.19
2023-02-08T06:53:53.140Z,102935.06
2023-02-08T06:54:33.251Z,102947.44
2023-02-08T06:55:14.197Z,102947.41
2023-02-08T06:55:58.374Z,102959.84
2023-02-08T06:56:38.184Z,102952.72
2023-02-08T06:57:19.366Z,102954.47
2023-02-08T06:58:06.195Z,102948.31
2023-02-08T06:58:46.283Z,102940.34
2023-02-08T06:59:26.176Z,102927.88
2023-02-08T07:00:06.342Z,102952.69
2023-02-08T07:00:46.134Z,102942.91
2023-02-08T07:01:26.254Z,102963.31
2023-02-08T07:02:07.211Z,102962.38
2023-02-08T07:02:47.381Z,102945.56
2023-02-08T07:03:29.177Z,102961.53
2023-02-08T07:04:09.244Z,102954.47
2023-02-08T07:04:50.161Z,102953.59
2023-02-08T07:05:30.205Z,102952.69
2023-02-08T07:06:11.134Z,102949.19
2023-02-08T07:06:54.189Z,102958.06
2023-02-08T07:07:34.155Z,102965.16
2023-02-08T07:08:14.186Z,102953.81
2023-02-08T07:08:55.164Z,102973.28
2023-02-08T07:09:35.259Z,102951.09
2023-02-08T07:10:16.197Z,102965.25
2023-02-08T07:10:56.196Z,102962.56
2023-02-08T07:11:37.154Z,102967.03
2023-02-08T07:12:17.205Z,102982.09
2023-02-08T07:12:57.182Z,102960.81
2023-02-08T07:13:37.240Z,102974.91
2023-02-08T07:14:22.134Z,102980.28
2023-02-08T07:15:02.201Z,102973.16
2023-02-08T07:15:42.138Z,102964.31
2023-02-08T07:16:23.282Z,102975.81
2023-02-08T07:17:04.156Z,102961.63
2023-02-08T07:17:44.210Z,102975.78
2023-02-08T07:18:25.219Z,102972.19
2023-02-08T07:19:05.210Z,102974.84
2023-02-08T07:19:46.132Z,102973.97
2023-02-08T07:20:26.244Z,102971.31
2023-02-08T07:21:06.150Z,102976.56
2023-02-08T07:21:46.214Z,102979.22
2023-02-08T07:22:27.140Z,102968.56
2023-02-08T07:23:07.261Z,102981.84
2023-02-08T07:23:48.237Z,102963.22
2023-02-08T07:24:28.203Z,102984.56
2023-02-08T07:25:08.128Z,102982.75
2023-02-08T07:25:48.188Z,102985.44
2023-02-08T07:26:29.118Z,102977.41
2023-02-08T07:27:10.183Z,102965.97
2023-02-08T07:27:50.145Z,102975.72
2023-02-08T07:28:30.255Z,102987.22
2023-02-08T07:29:10.342Z,102983.63
2023-02-08T07:29:50.192Z,102982.78
2023-02-08T07:30:31.209Z,102985.38
2023-02-08T07:31:14.282Z,102966.69
2023-02-08T07:31:54.208Z,102977.38
2023-02-08T07:32:34.899Z,102981.84
2023-02-08T07:33:15.162Z,102969.38
2023-02-08T07:33:55.231Z,102985.28
2023-02-08T07:34:38.202Z,102995.88
2023-02-08T07:35:18.318Z,102981.00
2023-02-08T07:35:59.107Z,102984.44
2023-02-08T07:36:39.208Z,102978.22
2023-02-08T07:37:20.116Z,102976.41
2023-02-08T07:38:00.185Z,102976.44
2023-02-08T07:38:41.143Z,102982.50
2023-02-08T07:39:21.172Z,102987.78
2023-02-08T07:40:02.168Z,102987.78
2023-02-08T07:40:43.279Z,102987.78
2023-02-08T07:41:23.139Z,102973.59
2023-02-08T07:42:03.207Z,102980.59
2023-02-08T07:42:44.178Z,102990.34
2023-02-08T07:43:26.337Z,102988.59
2023-02-08T07:44:08.107Z,102961.28
2023-02-08T07:44:48.226Z,102984.31
2023-02-08T07:45:28.132Z,102976.28
2023-02-08T07:46:23.246Z,102983.34
2023-02-08T07:47:04.192Z,102952.34
2023-02-08T07:47:44.174Z,102993.03
2023-02-08T07:48:24.100Z,102994.75
2023-02-08T07:49:04.204Z,102994.78
2023-02-08T07:49:44.105Z,102994.84
2023-02-08T07:50:24.194Z,102996.56
2023-02-08T07:51:05.171Z,102999.19
2023-02-08T07:51:45.221Z,102998.25
2023-02-08T07:52:25.092Z,102994.66
2023-02-08T07:53:05.202Z,102992.03
2023-02-08T07:53:46.086Z,102994.72
2023-02-08T07:55:07.117Z,103004.38
2023-02-08T07:55:47.203Z,102998.25
2023-02-08T07:56:27.134Z,103000.28
2023-02-08T07:57:08.027Z,102987.84
2023-02-08T07:57:48.128Z,103006.34
2023-02-08T07:58:28.183Z,102998.34
2023-02-08T07:59:09.096Z,103000.94
2023-02-08T07:59:49.408Z,102989.44
2023-02-08T08:00:30.094Z,102991.16
2023-02-08T08:01:21.351Z,102984.88
2023-02-08T08:02:02.156Z,102981.44
2023-02-08T08:02:42.164Z,102972.59
2023-02-08T08:03:23.114Z,102978.84
2023-02-08T08:04:03.256Z,102986.72
2023-02-08T08:04:43.089Z,103001.75
2023-02-08T08:05:23.666Z,102992.03
2023-02-08T08:06:04.113Z,103001.66
2023-02-08T08:06:45.022Z,102994.44
2023-02-08T08:07:26.118Z,102980.25
2023-02-08T08:08:06.245Z,102983.75
2023-02-08T08:08:46.094Z,102978.41
2023-02-08T08:09:26.184Z,102973.97
2023-02-08T08:10:06.122Z,102978.41
2023-02-08T08:10:47.194Z,102998.84
2023-02-08T08:11:29.127Z,102988.19
2023-02-08T08:12:09.164Z,102984.66
2023-02-08T08:12:49.081Z,102981.00
2023-02-08T08:13:30.162Z,102990.75
2023-02-08T08:14:10.087Z,102980.13
2023-02-08T08:14:50.192Z,102976.63
2023-02-08T08:15:31.173Z,102997.94
2023-02-08T08:16:12.255Z,102997.13
2023-02-08T08:16:52.079Z,102980.31
2023-02-08T08:17:32.151Z,102990.00
2023-02-08T08:18:13.115Z,102984.66
2023-02-08T08:18:54.281Z,102994.66
2023-02-08T08:19:35.153Z,102994.59
2023-02-08T08:20:17.190Z,102997.13
2023-02-08T08:20:58.094Z,103000.66
2023-02-08T08:21:38.715Z,102985.56
2023-02-08T08:22:19.104Z,102978.41
2023-02-08T08:22:59.160Z,102992.59
2023-02-08T08:23:40.160Z,102997.78
2023-02-08T08:24:20.128Z,102996.16
2023-02-08T08:25:01.065Z,102986.34
2023-02-08T08:25:41.205Z,102991.78
2023-02-08T08:26:26.072Z,102996.31
2023-02-08T08:27:06.176Z,102967.03
2023-02-08T08:27:47.094Z,102997.94
2023-02-08T08:28:29.274Z,102991.72
2023-02-08T08:29:09.078Z,102982.81
2023-02-08T08:29:50.204Z,102996.94
2023-02-08T08:30:30.163Z,102997.03
2023-02-08T08:31:10.266Z,102991.66
2023-02-08T08:31:51.140Z,102993.41
2023-02-08T08:32:31.115Z,103003.09
2023-02-08T08:33:11.117Z,102993.38
2023-02-08T08:33:52.394Z,102987.13